Time;durP1;ratioP1;P1;durP2;ratioP2;P2;SDS_P1;SDS_P2;PMS_P1;PMS_P2;Temp;Humidity;BMP_temperature;BMP_pressure;BME280_temperature;BME280_humidity;BME280_pressure;Samples;Min_cycle;Max_cycle;Signal;HPM_P1;HPM_P2
2023/09/06 00:00:25;;;;;;;;;;;17.50;99.90;;;;;;21074739;28;19916;-76
2023/09/06 00:10:26;;;;;;;;;;;17.30;99.90;;;;;;21056603;28;19916;-75
2023/09/06 00:20:26;;;;;;;;;;;17.00;99.90;;;;;;21074215;28;19919;-75
2023/09/06 00:30:27;;;;;;;;;;;17.00;99.90;;;;;;21073800;28;19926;-75
2023/09/06 00:40:29;;;;;;;;;;;16.90;99.90;;;;;;21090083;28;19919;-75
2023/09/06 00:50:30;;;;;;;;;;;16.90;99.90;;;;;;21132024;28;19916;-76
2023/09/06 01:00:31;;;;;;;;;;;16.60;99.90;;;;;;21140879;28;19912;-76
2023/09/06 01:10:35;;;;;;;;;;;16.50;99.90;;;;;;21157612;28;19916;-76
2023/09/06 01:20:42;;;;;;;;;;;16.30;99.90;;;;;;21156770;28;19912;-76
2023/09/06 01:30:43;;;;;;;;;;;16.00;99.90;;;;;;21150054;28;19968;-76
2023/09/06 01:40:43;;;;;;;;;;;15.80;99.90;;;;;;21169806;28;20006;-75
2023/09/06 01:50:44;;;;;;;;;;;15.60;99.90;;;;;;21152135;28;19923;-76
2023/09/06 02:00:45;;;;;;;;;;;15.60;99.90;;;;;;21169064;28;19912;-75
2023/09/06 02:10:46;;;;;;;;;;;15.50;99.90;;;;;;21168539;28;19916;-73
2023/09/06 02:20:49;;;;;;;;;;;15.40;99.90;;;;;;21168639;28;20404;-74
2023/09/06 02:30:49;;;;;;;;;;;15.30;99.90;;;;;;21167202;28;19916;-75
2023/09/06 02:40:52;;;;;;;;;;;15.00;99.90;;;;;;21165640;28;19951;-75
2023/09/06 02:50:53;;;;;;;;;;;15.00;99.90;;;;;;21165463;28;19922;-75
2023/09/06 03:01:05;;;;;;;;;;;14.80;99.90;;;;;;21165258;28;19947;-74
2023/09/06 03:11:11;;;;;;;;;;;14.80;99.90;;;;;;21146203;28;19942;-74
2023/09/06 03:21:12;;;;;;;;;;;14.50;99.90;;;;;;21144174;28;20705;-76
2023/09/06 03:31:13;;;;;;;;;;;14.40;99.90;;;;;;21142954;28;19922;-76
2023/09/06 03:41:16;;;;;;;;;;;14.30;99.90;;;;;;21154869;28;20373;-75
2023/09/06 03:51:17;;;;;;;;;;;14.30;99.90;;;;;;21138319;28;19916;-76
2023/09/06 04:01:19;;;;;;;;;;;14.30;99.90;;;;;;21161617;28;19986;-74
2023/09/06 04:11:23;;;;;;;;;;;14.20;99.90;;;;;;21139768;28;19916;-74
2023/09/06 04:21:23;;;;;;;;;;;13.80;99.90;;;;;;21140206;28;19957;-75
2023/09/06 04:31:24;;;;;;;;;;;13.70;99.90;;;;;;21142304;28;19916;-73
2023/09/06 04:41:25;;;;;;;;;;;13.60;99.90;;;;;;21140602;28;20386;-75
2023/09/06 04:51:30;;;;;;;;;;;13.40;99.90;;;;;;21138595;28;19915;-75
2023/09/06 05:01:34;;;;;;;;;;;13.30;99.90;;;;;;21146105;28;19918;-74
2023/09/06 05:11:35;;;;;;;;;;;13.40;99.90;;;;;;21138987;28;20003;-74
2023/09/06 05:21:36;;;;;;;;;;;13.50;99.90;;;;;;21149815;28;20412;-74
2023/09/06 05:31:37;;;;;;;;;;;13.70;99.90;;;;;;21152295;28;19923;-74
2023/09/06 05:41:38;;;;;;;;;;;13.90;99.90;;;;;;21152240;28;19927;-75
2023/09/06 05:51:39;;;;;;;;;;;14.00;99.90;;;;;;21128954;28;19915;-76
2023/09/06 06:01:41;;;;;;;;;;;14.80;99.90;;;;;;21151224;28;20370;-76
2023/09/06 06:11:42;;;;;;;;;;;14.70;99.90;;;;;;21151496;28;19923;-76
2023/09/06 06:21:43;;;;;;;;;;;15.20;99.90;;;;;;21167978;28;19912;-76
2023/09/06 06:31:44;;;;;;;;;;;15.90;99.90;;;;;;21140836;28;20006;-76
2023/09/06 06:41:45;;;;;;;;;;;16.40;99.90;;;;;;21140083;28;20010;-76
2023/09/06 06:51:46;;;;;;;;;;;16.70;99.90;;;;;;21165866;28;20391;-76
2023/09/06 07:01:47;;;;;;;;;;;17.10;99.90;;;;;;21165370;28;19911;-76
2023/09/06 07:11:49;;;;;;;;;;;18.20;99.90;;;;;;21120469;28;19920;-76
2023/09/06 07:21:50;;;;;;;;;;;18.30;99.90;;;;;;21078558;28;20388;-76
2023/09/06 07:31:51;;;;;;;;;;;18.40;99.90;;;;;;21078424;28;19916;-75
2023/09/06 07:41:55;;;;;;;;;;;18.50;99.90;;;;;;21077223;28;20255;-76
2023/09/06 07:51:57;;;;;;;;;;;19.60;99.90;;;;;;21076754;28;19916;-75
2023/09/06 08:01:57;;;;;;;;;;;20.30;99.90;;;;;;21075848;28;19913;-76
2023/09/06 08:11:58;;;;;;;;;;;20.70;99.90;;;;;;21076110;28;20115;-75
2023/09/06 08:21:59;;;;;;;;;;;21.80;99.90;;;;;;21057195;28;19916;-75
2023/09/06 08:31:59;;;;;;;;;;;21.80;99.90;;;;;;21104454;28;19916;-76
2023/09/06 08:42:01;;;;;;;;;;;22.40;99.90;;;;;;21154102;28;20374;-76
2023/09/06 08:52:03;;;;;;;;;;;23.40;99.90;;;;;;21174984;28;19976;-76
2023/09/06 09:02:04;;;;;;;;;;;24.10;99.90;;;;;;21166974;28;19912;-76
2023/09/06 09:12:05;;;;;;;;;;;25.10;99.90;;;;;;21143398;28;19916;-76
2023/09/06 09:22:07;;;;;;;;;;;25.90;99.90;;;;;;21173092;28;19965;-76
2023/09/06 09:32:07;;;;;;;;;;;25.30;99.90;;;;;;21172229;28;19954;-75
2023/09/06 09:42:11;;;;;;;;;;;26.30;99.90;;;;;;21168880;28;19920;-75
2023/09/06 09:52:12;;;;;;;;;;;27.40;99.90;;;;;;21151790;28;19963;-75
2023/09/06 10:02:15;;;;;;;;;;;28.20;99.90;;;;;;21169044;28;19915;-76
2023/09/06 10:12:16;;;;;;;;;;;27.80;99.90;;;;;;21121881;28;19962;-76
2023/09/06 10:22:17;;;;;;;;;;;27.90;99.90;;;;;;21098303;28;19912;-76
2023/09/06 10:32:19;;;;;;;;;;;28.60;99.90;;;;;;21155342;28;19920;-76
2023/09/06 10:42:20;;;;;;;;;;;29.30;99.90;;;;;;21164004;28;20360;-76
2023/09/06 10:52:37;;;;;;;;;;;29.00;99.90;;;;;;21165677;28;19915;-76
2023/09/06 11:02:38;;;;;;;;;;;29.70;99.90;;;;;;21163938;28;20482;-76
2023/09/06 11:12:39;;;;;;;;;;;30.80;99.90;;;;;;21145580;28;19944;-76
2023/09/06 11:22:49;;;;;;;;;;;31.00;99.90;;;;;;21162595;28;19915;-76
2023/09/06 11:32:51;;;;;;;;;;;30.30;99.90;;;;;;21153555;28;19911;-76
2023/09/06 11:42:53;;;;;;;;;;;30.50;99.90;;;;;;21100043;28;19919;-76
2023/09/06 11:52:53;;;;;;;;;;;31.10;99.90;;;;;;21076312;28;20388;-76
2023/09/06 12:03:07;;;;;;;;;;;31.30;99.90;;;;;;21135223;28;19922;-76
2023/09/06 12:13:08;;;;;;;;;;;31.40;99.90;;;;;;21159535;28;19916;-76
2023/09/06 12:23:09;;;;;;;;;;;31.20;99.90;;;;;;21148941;28;20386;-76
2023/09/06 12:33:09;;;;;;;;;;;31.40;99.90;;;;;;21149559;28;19965;-75
2023/09/06 12:43:10;;;;;;;;;;;31.90;98.30;;;;;;21135364;28;19961;-75
2023/09/06 12:53:11;;;;;;;;;;;31.20;99.90;;;;;;21136022;28;19916;-75
2023/09/06 13:03:12;;;;;;;;;;;31.30;99.90;;;;;;21142304;28;19968;-75
2023/09/06 13:13:12;;;;;;;;;;;31.00;99.90;;;;;;21098663;28;19919;-75
2023/09/06 13:23:14;;;;;;;;;;;30.60;99.90;;;;;;21149843;28;20353;-75
2023/09/06 13:33:14;;;;;;;;;;;31.20;99.20;;;;;;21172122;28;20274;-76
2023/09/06 13:43:16;;;;;;;;;;;31.40;99.90;;;;;;21145714;28;19916;-75
2023/09/06 13:53:17;;;;;;;;;;;31.40;99.90;;;;;;21085591;28;19919;-74
2023/09/06 14:03:18;;;;;;;;;;;30.70;99.90;;;;;;21084271;28;20015;-75
2023/09/06 14:13:20;;;;;;;;;;;31.50;99.70;;;;;;21084291;28;20294;-75
2023/09/06 14:23:21;;;;;;;;;;;32.10;98.40;;;;;;21094780;28;19922;-76
2023/09/06 14:33:22;;;;;;;;;;;31.60;99.90;;;;;;21141945;28;19912;-76
2023/09/06 14:43:23;;;;;;;;;;;31.50;98.80;;;;;;21143580;28;20289;-76
2023/09/06 14:53:24;;;;;;;;;;;31.60;99.90;;;;;;21153480;28;19911;-76
2023/09/06 15:03:24;;;;;;;;;;;31.20;99.90;;;;;;21145170;28;19927;-76
2023/09/06 15:13:25;;;;;;;;;;;31.60;99.20;;;;;;21139284;28;20414;-76
2023/09/06 15:23:27;;;;;;;;;;;31.70;99.50;;;;;;21136502;28;20338;-76
2023/09/06 15:33:28;;;;;;;;;;;31.30;99.90;;;;;;21164379;28;20302;-76
2023/09/06 15:43:29;;;;;;;;;;;31.00;99.90;;;;;;21140817;28;19920;-76
2023/09/06 15:53:29;;;;;;;;;;;31.00;99.90;;;;;;21143592;28;19911;-76
2023/09/06 16:03:31;;;;;;;;;;;30.30;99.90;;;;;;21132293;28;19982;-76
2023/09/06 16:13:31;;;;;;;;;;;29.40;99.90;;;;;;21143167;28;19912;-76
2023/09/06 16:23:32;;;;;;;;;;;29.20;99.90;;;;;;21158318;28;19916;-76
2023/09/06 16:33:35;;;;;;;;;;;28.80;99.90;;;;;;21157037;28;19957;-76
2023/09/06 16:43:37;;;;;;;;;;;28.50;99.90;;;;;;21133322;28;19916;-76
2023/09/06 16:53:37;;;;;;;;;;;28.10;99.90;;;;;;21137940;28;20378;-76
2023/09/06 17:03:38;;;;;;;;;;;27.70;99.90;;;;;;21118357;28;19915;-77
2023/09/06 17:13:39;;;;;;;;;;;27.20;99.90;;;;;;21088521;28;20387;-75
2023/09/06 17:23:44;;;;;;;;;;;26.50;99.90;;;;;;21141620;28;20014;-75
2023/09/06 17:33:45;;;;;;;;;;;26.10;99.90;;;;;;21149817;28;19919;-75
2023/09/06 17:43:46;;;;;;;;;;;25.50;99.90;;;;;;21152365;28;19920;-75
2023/09/06 17:53:47;;;;;;;;;;;25.10;99.90;;;;;;21159076;28;19912;-75
2023/09/06 18:03:52;;;;;;;;;;;23.80;99.90;;;;;;21155101;28;19915;-74
2023/09/06 18:13:52;;;;;;;;;;;23.10;99.90;;;;;;21146126;28;19912;-76
2023/09/06 18:23:53;;;;;;;;;;;22.40;99.90;;;;;;21160166;28;19923;-75
2023/09/06 18:33:54;;;;;;;;;;;22.20;99.90;;;;;;21135696;28;19911;-74
2023/09/06 18:43:55;;;;;;;;;;;22.40;99.90;;;;;;21144760;28;19919;-74
2023/09/06 18:53:55;;;;;;;;;;;22.90;99.90;;;;;;21162481;28;20298;-73
2023/09/06 19:03:58;;;;;;;;;;;22.80;99.90;;;;;;21158716;28;20508;-75
2023/09/06 19:13:59;;;;;;;;;;;22.70;99.90;;;;;;21160197;28;19912;-75
2023/09/06 19:23:59;;;;;;;;;;;22.20;99.90;;;;;;21157826;28;19927;-75
2023/09/06 19:34:00;;;;;;;;;;;21.90;99.90;;;;;;21158169;28;20370;-75
2023/09/06 19:44:01;;;;;;;;;;;21.70;99.90;;;;;;21155721;28;20006;-75
2023/09/06 19:54:01;;;;;;;;;;;21.40;99.90;;;;;;21155645;28;19996;-75
2023/09/06 20:04:02;;;;;;;;;;;21.40;99.90;;;;;;21156724;28;19916;-75
2023/09/06 20:14:04;;;;;;;;;;;21.30;99.90;;;;;;21143469;28;20294;-75
2023/09/06 20:24:05;;;;;;;;;;;20.80;99.90;;;;;;21149080;28;20017;-75
2023/09/06 20:34:06;;;;;;;;;;;20.60;99.90;;;;;;21165482;28;19912;-75
2023/09/06 20:44:07;;;;;;;;;;;20.40;99.90;;;;;;21174523;28;19916;-75
2023/09/06 20:54:07;;;;;;;;;;;20.20;99.90;;;;;;21174818;28;20290;-75
2023/09/06 21:04:08;;;;;;;;;;;20.10;99.90;;;;;;21155753;28;19968;-75
2023/09/06 21:14:09;;;;;;;;;;;20.00;99.90;;;;;;21155192;28;19916;-75
2023/09/06 21:24:09;;;;;;;;;;;19.90;99.90;;;;;;21173536;28;20393;-75
2023/09/06 21:34:10;;;;;;;;;;;19.90;99.90;;;;;;21172250;28;19982;-76
2023/09/06 21:44:10;;;;;;;;;;;20.00;99.90;;;;;;21170905;28;19922;-76
2023/09/06 21:54:11;;;;;;;;;;;19.80;99.90;;;;;;21149873;28;19919;-76
2023/09/06 22:04:12;;;;;;;;;;;19.80;99.90;;;;;;21167912;28;19922;-76
2023/09/06 22:14:31;;;;;;;;;;;19.70;99.90;;;;;;21168122;28;19911;-76
2023/09/06 22:24:31;;;;;;;;;;;19.70;99.90;;;;;;21148772;28;19931;-76
2023/09/06 22:34:34;;;;;;;;;;;19.70;99.90;;;;;;21082817;28;20003;-76
2023/09/06 22:44:35;;;;;;;;;;;19.50;99.90;;;;;;21062198;28;19942;-75
2023/09/06 22:54:38;;;;;;;;;;;19.50;99.90;;;;;;21079967;28;20408;-75
2023/09/06 23:04:40;;;;;;;;;;;19.50;99.90;;;;;;21150190;28;19915;-75
2023/09/06 23:14:41;;;;;;;;;;;19.50;99.90;;;;;;21153001;28;20010;-75
2023/09/06 23:24:43;;;;;;;;;;;19.40;99.90;;;;;;21158110;28;19951;-75
2023/09/06 23:34:47;;;;;;;;;;;19.30;99.90;;;;;;21149958;28;20328;-76
2023/09/06 23:44:48;;;;;;;;;;;19.20;99.90;;;;;;21159003;28;20274;-76
2023/09/06 23:54:48;;;;;;;;;;;19.00;99.90;;;;;;21139360;28;19918;-75
